createdAt,value
2024-03-10T00:00:40.747Z,97739.06
2024-03-10T00:03:12.205Z,97735.81
2024-03-10T00:05:41.246Z,97733.75
2024-03-10T00:08:10.245Z,97734.69
2024-03-10T00:10:43.121Z,97722.91
2024-03-10T00:13:12.531Z,97727.41
2024-03-10T00:15:41.344Z,97721.75
2024-03-10T00:18:11.568Z,97721.41
2024-03-10T00:20:40.410Z,97719.78
2024-03-10T00:23:09.236Z,97720.69
2024-03-10T00:25:38.136Z,97718.84
2024-03-10T00:28:07.690Z,97717.47
2024-03-10T00:30:36.538Z,97723.22
2024-03-10T00:33:07.965Z,97717.34
2024-03-10T00:35:38.338Z,97718.94
2024-03-10T00:38:07.454Z,97712.38
2024-03-10T00:40:38.653Z,97710.66
2024-03-10T00:43:07.967Z,97701.94
2024-03-10T00:45:36.943Z,97706.69
2024-03-10T00:48:07.301Z,97710.72
2024-03-10T00:50:37.691Z,97705.19
2024-03-10T00:53:06.786Z,97698.69
2024-03-10T00:55:35.647Z,97708.16
2024-03-10T00:58:05.218Z,97702.50
2024-03-10T01:00:34.240Z,97707.75
2024-03-10T01:03:04.123Z,97706.00
2024-03-10T01:05:33.146Z,97707.97
2024-03-10T01:08:03.464Z,97699.19
2024-03-10T01:10:32.926Z,97695.72
2024-03-10T01:13:01.769Z,97688.91
2024-03-10T01:15:33.243Z,97680.00
2024-03-10T01:18:02.323Z,97677.50
2024-03-10T01:20:31.370Z,97677.56
2024-03-10T01:23:00.798Z,97669.59
2024-03-10T01:25:32.648Z,97669.59
2024-03-10T01:28:01.796Z,97661.16
2024-03-10T01:30:30.658Z,97661.16
2024-03-10T01:33:00.113Z,97657.13
2024-03-10T01:35:29.257Z,97658.16
2024-03-10T01:37:58.181Z,97670.66
2024-03-10T01:40:27.106Z,97660.97
2024-03-10T01:42:58.676Z,97657.50
2024-03-10T01:45:27.896Z,97651.06
2024-03-10T01:48:00.087Z,97648.63
2024-03-10T01:50:29.520Z,97647.56
2024-03-10T01:52:58.705Z,97650.72
2024-03-10T01:55:30.223Z,97649.03
2024-03-10T01:58:01.500Z,97651.69
2024-03-10T02:00:30.353Z,97643.69
2024-03-10T02:03:01.150Z,97638.94
2024-03-10T02:05:30.856Z,97638.50
2024-03-10T02:08:00.640Z,97642.78
2024-03-10T02:10:29.507Z,97636.66
2024-03-10T02:12:59.735Z,97631.34
2024-03-10T02:15:28.722Z,97633.72
2024-03-10T02:17:58.134Z,97632.69
2024-03-10T02:20:27.497Z,97634.88
2024-03-10T02:22:56.740Z,97637.53
2024-03-10T02:25:35.950Z,97636.59
2024-03-10T02:28:11.028Z,97641.19
2024-03-10T02:30:44.283Z,97640.34
2024-03-10T02:33:36.196Z,97631.63
2024-03-10T02:36:23.135Z,97635.44
2024-03-10T02:39:09.110Z,97628.50
2024-03-10T02:41:55.897Z,97628.03
2024-03-10T02:44:43.566Z,97628.50
2024-03-10T02:47:15.676Z,97630.13
2024-03-10T02:49:45.046Z,97620.13
2024-03-10T02:52:15.211Z,97624.81
2024-03-10T02:54:44.130Z,97623.34
2024-03-10T02:57:13.058Z,97616.03
2024-03-10T02:59:43.277Z,97617.38
2024-03-10T03:02:12.834Z,97614.81
2024-03-10T03:04:41.754Z,97620.53
2024-03-10T03:07:10.656Z,97618.44
2024-03-10T03:09:39.656Z,97618.59
2024-03-10T03:12:09.066Z,97607.06
2024-03-10T03:14:38.212Z,97612.25
2024-03-10T03:17:09.142Z,97612.19
2024-03-10T03:19:38.359Z,97607.31
2024-03-10T03:22:08.225Z,97607.47
2024-03-10T03:24:37.753Z,97609.56
2024-03-10T03:27:08.711Z,97613.72
2024-03-10T03:29:37.598Z,97617.44
2024-03-10T03:32:08.120Z,97614.81
2024-03-10T03:34:37.087Z,97606.94
2024-03-10T03:37:07.402Z,97607.28
2024-03-10T03:39:36.743Z,97601.03
2024-03-10T03:42:05.930Z,97597.38
2024-03-10T03:44:34.831Z,97587.75
2024-03-10T03:47:03.763Z,97596.53
2024-03-10T03:49:34.128Z,97583.75
2024-03-10T03:52:03.113Z,97585.34
2024-03-10T03:54:32.908Z,97577.06
2024-03-10T03:57:02.181Z,97580.75
2024-03-10T03:59:31.075Z,97573.25
2024-03-10T04:01:59.980Z,97569.47
2024-03-10T04:04:29.329Z,97554.22
2024-03-10T04:06:59.624Z,97568.00
2024-03-10T04:09:28.924Z,97563.97
2024-03-10T04:11:57.897Z,97550.91
2024-03-10T04:14:28.024Z,97543.75
2024-03-10T04:16:57.300Z,97555.31
2024-03-10T04:19:26.423Z,97546.88
2024-03-10T04:21:55.796Z,97554.28
2024-03-10T04:24:26.897Z,97555.78
2024-03-10T04:26:55.747Z,97556.13
2024-03-10T04:29:25.070Z,97550.50
2024-03-10T04:31:54.254Z,97543.72
2024-03-10T04:34:23.209Z,97544.97
2024-03-10T04:36:53.024Z,97546.13
2024-03-10T04:39:22.568Z,97546.13
2024-03-10T04:41:55.275Z,97530.50
2024-03-10T04:44:24.534Z,97536.06
2024-03-10T04:46:53.713Z,97532.59
2024-03-10T04:49:22.625Z,97529.03
2024-03-10T04:51:51.672Z,97517.16
2024-03-10T04:54:20.545Z,97521.63
2024-03-10T04:56:49.530Z,97525.13
2024-03-10T04:59:19.995Z,97524.75
2024-03-10T05:01:49.027Z,97538.94
2024-03-10T05:04:17.908Z,97534.28
2024-03-10T05:06:46.709Z,97537.34
2024-03-10T05:09:15.593Z,97534.66
2024-03-10T05:11:44.593Z,97535.78
2024-03-10T05:14:14.336Z,97532.09
2024-03-10T05:16:45.025Z,97532.09
2024-03-10T05:19:14.420Z,97523.06
2024-03-10T05:21:47.975Z,97527.25
2024-03-10T05:24:17.058Z,97532.78
2024-03-10T05:26:45.891Z,97538.34
2024-03-10T05:29:15.471Z,97538.34
2024-03-10T05:31:46.077Z,97544.91
2024-03-10T05:34:15.547Z,97547.06
2024-03-10T05:36:44.550Z,97541.31
2024-03-10T05:39:15.722Z,97539.69
2024-03-10T05:41:44.563Z,97534.94
2024-03-10T05:44:15.614Z,97543.63
2024-03-10T05:46:47.779Z,97544.41
2024-03-10T05:49:16.681Z,97549.97
2024-03-10T05:51:49.654Z,97551.59
2024-03-10T05:54:30.496Z,97553.44
2024-03-10T05:57:00.940Z,97555.63
2024-03-10T05:59:37.172Z,97559.16
2024-03-10T06:02:30.099Z,97542.41
2024-03-10T06:05:15.553Z,97536.16
2024-03-10T06:07:48.300Z,97524.16
2024-03-10T06:10:18.632Z,97516.19
2024-03-10T06:12:51.864Z,97512.72
2024-03-10T06:15:27.300Z,97514.56
2024-03-10T06:18:18.809Z,97512.47
2024-03-10T06:21:12.662Z,97510.88
2024-03-10T06:24:02.874Z,97511.53
2024-03-10T06:26:34.559Z,97522.16
2024-03-10T06:29:06.343Z,97525.84
2024-03-10T06:31:36.687Z,97526.09
2024-03-10T06:34:12.065Z,97521.34
2024-03-10T06:36:56.397Z,97522.47
2024-03-10T06:39:27.201Z,97516.72
2024-03-10T06:42:00.153Z,97513.34
2024-03-10T06:44:29.934Z,97515.13
2024-03-10T06:47:05.345Z,97505.84
2024-03-10T06:49:45.390Z,97500.44
2024-03-10T06:52:19.753Z,97488.38
2024-03-10T06:54:53.014Z,97486.94
2024-03-10T06:57:24.412Z,97482.31
2024-03-10T06:59:53.546Z,97472.59
2024-03-10T07:02:24.021Z,97475.69
2024-03-10T07:04:54.361Z,97476.84
2024-03-10T07:07:23.275Z,97489.03
2024-03-10T07:09:52.317Z,97493.59
2024-03-10T07:12:21.179Z,97499.59
2024-03-10T07:14:50.222Z,97494.88
2024-03-10T07:17:19.169Z,97493.56
2024-03-10T07:19:48.614Z,97497.38
2024-03-10T07:22:19.307Z,97501.97
2024-03-10T07:24:48.199Z,97500.44
2024-03-10T07:27:17.267Z,97506.88
2024-03-10T07:29:46.153Z,97505.97
2024-03-10T07:32:15.298Z,97502.88
2024-03-10T07:35:13.836Z,97497.34
2024-03-10T07:37:45.822Z,97499.81
2024-03-10T07:40:19.299Z,97499.84
2024-03-10T07:42:54.991Z,97502.59
2024-03-10T07:45:23.999Z,97495.13
2024-03-10T07:47:53.123Z,97500.47
2024-03-10T07:50:22.201Z,97494.63
2024-03-10T07:52:52.687Z,97498.94
2024-03-10T07:55:25.857Z,97509.69
2024-03-10T07:57:56.959Z,97509.19
2024-03-10T08:00:27.839Z,97496.09
2024-03-10T08:02:57.956Z,97500.13
2024-03-10T08:05:31.796Z,97501.50
2024-03-10T08:08:04.523Z,97507.13
2024-03-10T08:10:35.737Z,97490.53
2024-03-10T08:13:07.264Z,97500.19
2024-03-10T08:15:42.325Z,97497.28
2024-03-10T08:18:14.553Z,97502.94
2024-03-10T08:20:45.724Z,97503.47
2024-03-10T08:23:16.460Z,97499.72
2024-03-10T08:25:46.971Z,97495.22
2024-03-10T08:28:20.707Z,97502.16
2024-03-10T08:30:51.537Z,97499.81
2024-03-10T08:33:21.323Z,97495.81
2024-03-10T08:35:57.646Z,97490.78
2024-03-10T08:38:31.134Z,97500.66
2024-03-10T08:41:12.295Z,97492.38
2024-03-10T08:43:47.510Z,97490.78
2024-03-10T08:46:24.833Z,97491.31
2024-03-10T08:48:54.534Z,97486.56
2024-03-10T08:51:25.394Z,97485.97
2024-03-10T08:53:59.177Z,97495.09
2024-03-10T08:57:00.838Z,97498.84
2024-03-10T08:59:31.679Z,97502.59
2024-03-10T09:02:01.386Z,97506.06
2024-03-10T09:04:32.506Z,97507.16
2024-03-10T09:07:01.559Z,97506.34
2024-03-10T09:09:31.904Z,97513.59
2024-03-10T09:12:02.415Z,97510.41
2024-03-10T09:14:34.678Z,97511.19
2024-03-10T09:17:05.800Z,97506.66
2024-03-10T09:19:38.781Z,97500.25
2024-03-10T09:22:12.752Z,97494.06
2024-03-10T09:24:52.557Z,97498.31
2024-03-10T09:27:24.179Z,97487.03
2024-03-10T09:30:05.386Z,97486.00
2024-03-10T09:32:43.321Z,97485.44
2024-03-10T09:35:27.257Z,97483.28
2024-03-10T09:38:06.608Z,97474.22
2024-03-10T09:40:44.236Z,97475.81
2024-03-10T09:43:20.537Z,97470.16
2024-03-10T09:45:57.147Z,97477.63
2024-03-10T09:48:30.923Z,97472.81
2024-03-10T09:51:04.340Z,97461.84
2024-03-10T09:53:40.750Z,97465.03
2024-03-10T09:56:17.328Z,97458.53
2024-03-10T09:59:49.231Z,97445.16
2024-03-10T10:02:35.991Z,97439.75
2024-03-10T10:05:17.974Z,97441.03
2024-03-10T10:07:55.482Z,97432.53
2024-03-10T10:10:27.974Z,97425.28
2024-03-10T10:13:03.964Z,97426.19
2024-03-10T10:15:38.091Z,97415.69
2024-03-10T10:18:17.435Z,97411.19
2024-03-10T10:21:00.619Z,97421.44
2024-03-10T10:23:34.344Z,97412.97
2024-03-10T10:26:12.312Z,97407.66
2024-03-10T10:29:09.816Z,97395.63
2024-03-10T10:31:42.147Z,97389.53
2024-03-10T10:34:21.447Z,97379.59
2024-03-10T10:36:52.852Z,97388.06
2024-03-10T10:39:28.038Z,97383.94
2024-03-10T10:43:05.336Z,97373.25
2024-03-10T10:45:50.189Z,97372.38
2024-03-10T10:48:24.536Z,97366.34
2024-03-10T10:51:11.576Z,97360.16
2024-03-10T10:53:45.306Z,97353.53
2024-03-10T11:00:18.806Z,97353.44
2024-03-10T11:02:54.196Z,97355.69
2024-03-10T11:06:27.037Z,97342.56
2024-03-10T11:09:02.817Z,97350.84
2024-03-10T11:11:58.162Z,97348.78
2024-03-10T11:14:33.443Z,97344.25
2024-03-10T11:17:33.157Z,97339.72
2024-03-10T11:20:11.387Z,97339.50
2024-03-10T11:22:58.090Z,97330.53
2024-03-10T11:25:42.945Z,97334.03
2024-03-10T11:28:24.928Z,97326.56
2024-03-10T11:30:59.960Z,97330.22
2024-03-10T11:33:30.707Z,97318.88
2024-03-10T11:36:01.740Z,97329.78
2024-03-10T11:38:34.472Z,97346.81
2024-03-10T11:41:10.647Z,97336.59
2024-03-10T11:43:40.893Z,97327.13
2024-03-10T11:46:26.751Z,97346.50
2024-03-10T11:49:00.657Z,97339.03
2024-03-10T11:51:34.960Z,97339.66
2024-03-10T11:54:14.901Z,97337.13
2024-03-10T11:56:55.879Z,97327.97
2024-03-10T11:59:26.090Z,97325.59
2024-03-10T12:01:59.792Z,97335.78
2024-03-10T12:04:59.058Z,97326.97
2024-03-10T12:07:31.017Z,97326.91
2024-03-10T12:10:00.065Z,97337.56
2024-03-10T12:12:33.940Z,97333.75
2024-03-10T12:15:06.181Z,97331.38
2024-03-10T12:17:36.055Z,97336.56
2024-03-10T12:20:13.464Z,97338.75
2024-03-10T12:22:46.311Z,97335.13
2024-03-10T12:25:15.483Z,97340.31
2024-03-10T12:27:44.567Z,97345.19
2024-03-10T12:30:15.845Z,97347.03
2024-03-10T12:32:46.777Z,97341.25
2024-03-10T12:35:16.460Z,97340.72
2024-03-10T12:37:46.838Z,97341.59
2024-03-10T12:40:17.887Z,97346.81
2024-03-10T12:42:48.657Z,97349.06
2024-03-10T12:45:18.224Z,97335.47
2024-03-10T12:47:48.268Z,97342.09
2024-03-10T12:50:17.757Z,97336.59
2024-03-10T12:52:49.197Z,97344.06
2024-03-10T12:55:19.734Z,97347.19
2024-03-10T12:57:49.045Z,97345.44
2024-03-10T13:00:30.659Z,97335.69
2024-03-10T13:03:02.097Z,97324.53
2024-03-10T13:05:32.535Z,97326.69
2024-03-10T13:08:10.564Z,97323.19
2024-03-10T13:10:40.949Z,97322.16
2024-03-10T13:13:12.948Z,97315.72
2024-03-10T13:15:43.306Z,97314.09
2024-03-10T13:18:14.656Z,97302.00
2024-03-10T13:20:45.244Z,97304.19
2024-03-10T13:23:16.050Z,97293.41
2024-03-10T13:25:45.284Z,97299.25
2024-03-10T13:28:15.741Z,97309.16
2024-03-10T13:30:44.927Z,97299.47
2024-03-10T13:33:16.118Z,97297.81
2024-03-10T13:35:45.177Z,97293.16
2024-03-10T13:38:16.832Z,97285.81
2024-03-10T13:40:49.192Z,97282.66
2024-03-10T13:43:20.721Z,97270.41
2024-03-10T13:45:53.629Z,97269.03
2024-03-10T13:48:23.304Z,97259.47
2024-03-10T13:50:52.768Z,97263.25
2024-03-10T13:53:23.397Z,97271.66
2024-03-10T13:55:52.531Z,97260.50
2024-03-10T13:58:24.656Z,97248.38
2024-03-10T14:00:55.879Z,97245.63
2024-03-10T14:03:35.115Z,97252.66
2024-03-10T14:06:09.341Z,97253.69
2024-03-10T14:08:40.025Z,97255.78
2024-03-10T14:11:16.154Z,97259.97
2024-03-10T14:14:11.505Z,97240.34
2024-03-10T14:16:42.084Z,97247.13
2024-03-10T14:19:19.427Z,97233.19
2024-03-10T14:21:49.493Z,97240.47
2024-03-10T14:24:21.627Z,97241.94
2024-03-10T14:26:52.571Z,97243.63
2024-03-10T14:29:31.583Z,97256.28
2024-03-10T14:32:01.651Z,97256.03
2024-03-10T14:34:33.412Z,97259.75
2024-03-10T14:37:07.678Z,97254.72
2024-03-10T14:39:43.244Z,97260.25
2024-03-10T14:42:15.344Z,97257.47
2024-03-10T14:44:47.150Z,97264.03
2024-03-10T14:47:20.306Z,97266.13
2024-03-10T14:49:55.646Z,97267.06
2024-03-10T14:52:31.388Z,97264.38
2024-03-10T14:55:07.880Z,97269.22
2024-03-10T14:57:41.176Z,97252.56
2024-03-10T15:00:35.862Z,97258.94
2024-03-10T15:03:09.825Z,97272.75
2024-03-10T15:05:44.009Z,97253.78
2024-03-10T15:08:17.685Z,97258.13
2024-03-10T15:10:53.361Z,97250.00
2024-03-10T15:13:24.026Z,97250.59
2024-03-10T15:15:57.626Z,97244.69
2024-03-10T15:18:28.113Z,97244.59
2024-03-10T15:21:05.955Z,97254.22
2024-03-10T15:23:38.447Z,97244.34
2024-03-10T15:26:14.257Z,97234.94
2024-03-10T15:28:47.318Z,97246.91
2024-03-10T15:31:16.943Z,97237.63
2024-03-10T15:33:51.713Z,97246.16
2024-03-10T15:36:22.615Z,97235.41
2024-03-10T15:38:54.996Z,97237.00
2024-03-10T15:42:03.918Z,97219.09
2024-03-10T15:44:36.632Z,97226.25
2024-03-10T15:50:04.518Z,97214.09
2024-03-10T15:53:19.694Z,97214.63
2024-03-10T15:56:42.374Z,97212.63
2024-03-10T15:59:48.051Z,97220.84
2024-03-10T16:03:20.769Z,97231.38
2024-03-10T16:06:24.865Z,97222.94
2024-03-10T16:10:07.947Z,97218.31
2024-03-10T16:12:45.100Z,97212.81
2024-03-10T16:15:36.286Z,97218.53
2024-03-10T16:18:12.687Z,97216.00
2024-03-10T16:20:49.529Z,97224.06
2024-03-10T16:23:29.496Z,97217.88
2024-03-10T16:26:00.825Z,97212.28
2024-03-10T16:28:31.561Z,97225.63
2024-03-10T16:31:06.415Z,97216.34
2024-03-10T16:33:36.409Z,97219.13
2024-03-10T16:36:09.761Z,97222.53
2024-03-10T16:38:45.492Z,97223.03
2024-03-10T16:41:22.882Z,97209.81
2024-03-10T16:43:55.956Z,97216.22
2024-03-10T16:46:30.037Z,97225.72
2024-03-10T16:49:05.683Z,97227.84
2024-03-10T16:51:40.182Z,97232.59
2024-03-10T16:54:15.620Z,97220.13
2024-03-10T16:56:45.047Z,97221.44
2024-03-10T16:59:13.906Z,97230.09
2024-03-10T17:01:46.445Z,97226.75
2024-03-10T17:04:18.137Z,97222.53
2024-03-10T17:06:49.440Z,97218.25
2024-03-10T17:09:20.589Z,97220.56
2024-03-10T17:11:50.360Z,97221.59
2024-03-10T17:14:35.433Z,97229.50
2024-03-10T17:17:27.507Z,97218.75
2024-03-10T17:20:08.246Z,97226.38
2024-03-10T17:22:45.920Z,97225.50
2024-03-10T17:25:16.302Z,97232.72
2024-03-10T17:27:47.162Z,97224.53
2024-03-10T17:30:22.497Z,97220.28
2024-03-10T17:32:57.367Z,97227.91
2024-03-10T17:35:27.928Z,97222.38
2024-03-10T17:37:59.945Z,97224.66
2024-03-10T17:40:29.605Z,97227.84
2024-03-10T17:43:00.190Z,97226.66
2024-03-10T17:45:30.816Z,97231.25
2024-03-10T17:48:08.395Z,97226.00
2024-03-10T17:50:43.173Z,97227.09
2024-03-10T17:53:12.344Z,97225.72
2024-03-10T17:55:44.199Z,97228.94
2024-03-10T17:58:13.210Z,97214.41
2024-03-10T18:00:42.367Z,97212.59
2024-03-10T18:03:13.603Z,97205.38
2024-03-10T18:05:42.689Z,97199.81
2024-03-10T18:08:24.378Z,97199.09
2024-03-10T18:10:58.497Z,97195.97
2024-03-10T18:13:34.273Z,97191.97
2024-03-10T18:16:04.562Z,97190.19
2024-03-10T18:18:41.183Z,97184.16
2024-03-10T18:21:12.671Z,97186.09
2024-03-10T18:23:42.430Z,97187.19
2024-03-10T18:26:16.389Z,97187.03
2024-03-10T18:28:46.206Z,97184.50
2024-03-10T18:31:16.520Z,97185.34
2024-03-10T18:33:48.931Z,97186.50
2024-03-10T18:36:18.501Z,97180.88
2024-03-10T18:38:48.539Z,97174.78
2024-03-10T18:41:18.245Z,97170.84
2024-03-10T18:43:48.480Z,97163.63
2024-03-10T18:46:18.664Z,97157.81
2024-03-10T18:48:49.130Z,97147.75
2024-03-10T18:51:18.185Z,97149.44
2024-03-10T18:53:47.138Z,97148.47
2024-03-10T18:56:21.680Z,97147.44
2024-03-10T18:58:52.220Z,97151.50
2024-03-10T19:01:21.352Z,97143.00
2024-03-10T19:03:51.890Z,97144.41
2024-03-10T19:06:21.033Z,97143.47
2024-03-10T19:08:50.312Z,97143.06
2024-03-10T19:11:20.549Z,97142.91
2024-03-10T19:13:50.296Z,97137.78
2024-03-10T19:16:19.295Z,97142.59
2024-03-10T19:18:50.582Z,97142.66
2024-03-10T19:21:22.336Z,97143.72
2024-03-10T19:23:51.549Z,97148.66
2024-03-10T19:26:20.916Z,97149.78
2024-03-10T19:28:52.766Z,97147.16
2024-03-10T19:31:28.027Z,97144.53
2024-03-10T19:33:58.923Z,97146.44
2024-03-10T19:36:33.242Z,97147.22
2024-03-10T19:39:03.926Z,97143.72
2024-03-10T19:41:38.061Z,97144.03
2024-03-10T19:44:11.380Z,97146.19
2024-03-10T19:46:44.710Z,97144.66
2024-03-10T19:49:19.948Z,97147.97
2024-03-10T19:51:56.803Z,97147.22
2024-03-10T19:54:29.385Z,97149.38
2024-03-10T19:57:02.564Z,97143.25
2024-03-10T19:59:33.810Z,97147.28
2024-03-10T20:02:04.462Z,97151.75
2024-03-10T20:04:41.475Z,97149.88
2024-03-10T20:07:19.284Z,97149.16
2024-03-10T20:09:52.888Z,97151.88
2024-03-10T20:12:42.936Z,97144.34
2024-03-10T20:15:14.287Z,97147.84
2024-03-10T20:17:50.621Z,97154.06
2024-03-10T20:20:26.720Z,97146.03
2024-03-10T20:22:59.595Z,97145.25
2024-03-10T20:25:29.297Z,97138.53
2024-03-10T20:27:59.387Z,97143.59
2024-03-10T20:30:31.320Z,97136.38
2024-03-10T20:33:01.535Z,97136.13
2024-03-10T20:35:30.899Z,97143.84
2024-03-10T20:38:01.890Z,97139.59
2024-03-10T20:40:30.864Z,97133.25
2024-03-10T20:43:01.708Z,97137.03
2024-03-10T20:45:32.548Z,97134.66
2024-03-10T20:48:02.153Z,97139.19
2024-03-10T20:50:32.014Z,97131.97
2024-03-10T20:53:03.376Z,97128.44
2024-03-10T20:55:32.734Z,97129.53
2024-03-10T20:58:07.345Z,97123.66
2024-03-10T21:00:37.544Z,97123.97
2024-03-10T21:03:08.881Z,97124.50
2024-03-10T21:05:38.248Z,97127.44
2024-03-10T21:08:10.278Z,97124.75
2024-03-10T21:10:41.872Z,97126.34
2024-03-10T21:13:11.448Z,97127.44
2024-03-10T21:15:41.957Z,97127.44
2024-03-10T21:18:12.070Z,97119.44
2024-03-10T21:20:44.350Z,97126.41
2024-03-10T21:23:15.326Z,97128.81
2024-03-10T21:25:45.368Z,97120.00
2024-03-10T21:28:15.251Z,97111.97
2024-03-10T21:30:48.247Z,97111.97
2024-03-10T21:33:19.461Z,97102.88
2024-03-10T21:35:50.322Z,97105.00
2024-03-10T21:38:21.354Z,97105.84
2024-03-10T21:40:50.268Z,97106.66
2024-03-10T21:43:20.989Z,97105.63
2024-03-10T21:45:50.281Z,97107.72
2024-03-10T21:48:21.703Z,97096.53
2024-03-10T21:50:50.673Z,97106.94
2024-03-10T21:53:21.324Z,97109.06
2024-03-10T21:55:50.491Z,97106.66
2024-03-10T21:58:19.363Z,97112.03
2024-03-10T22:00:50.027Z,97127.22
2024-03-10T22:03:18.988Z,97119.47
2024-03-10T22:05:47.942Z,97117.09
2024-03-10T22:08:34.626Z,97116.81
2024-03-10T22:11:04.696Z,97126.69
2024-03-10T22:13:33.601Z,97125.91
2024-03-10T22:16:05.773Z,97130.16
2024-03-10T22:18:35.025Z,97127.50
2024-03-10T22:21:05.700Z,97126.97
2024-03-10T22:23:37.445Z,97120.56
2024-03-10T22:26:07.801Z,97128.03
2024-03-10T22:28:36.928Z,97128.59
2024-03-10T22:31:06.725Z,97131.75
2024-03-10T22:33:36.721Z,97133.91
2024-03-10T22:36:06.494Z,97130.19
2024-03-10T22:38:36.820Z,97130.47
2024-03-10T22:41:06.245Z,97125.34
2024-03-10T22:44:52.041Z,97126.72
2024-03-10T22:47:26.184Z,97126.19
2024-03-10T22:49:55.274Z,97132.31
2024-03-10T22:52:24.525Z,97136.03
2024-03-10T22:54:54.851Z,97131.75
2024-03-10T22:57:23.714Z,97133.13
2024-03-10T23:00:35.531Z,97130.97
2024-03-10T23:03:17.947Z,97136.56
2024-03-10T23:05:49.429Z,97140.81
2024-03-10T23:08:20.687Z,97134.16
2024-03-10T23:10:57.361Z,97156.84
2024-03-10T23:13:27.768Z,97165.31
2024-03-10T23:16:23.364Z,97162.13
2024-03-10T23:18:52.253Z,97162.66
2024-03-10T23:21:22.496Z,97149.31
2024-03-10T23:23:51.514Z,97145.31
2024-03-10T23:26:22.405Z,97140.75
2024-03-10T23:28:51.309Z,97146.09
2024-03-10T23:31:20.232Z,97144.19
2024-03-10T23:33:49.059Z,97149.28
2024-03-10T23:36:18.788Z,97147.94
2024-03-10T23:38:47.930Z,97153.81
2024-03-10T23:41:16.970Z,97142.09
2024-03-10T23:43:47.302Z,97137.84
2024-03-10T23:46:19.057Z,97139.44
2024-03-10T23:48:48.229Z,97135.19
2024-03-10T23:51:17.144Z,97148.81
2024-03-10T23:53:46.169Z,97149.88
2024-03-10T23:56:15.874Z,97141.56
2024-03-10T23:58:47.039Z,97148.50
